Time;durP1;ratioP1;P1;durP2;ratioP2;P2;SDS_P1;SDS_P2;PMS_P1;PMS_P2;Temp;Humidity;BMP_temperature;BMP_pressure;BME280_temperature;BME280_humidity;BME280_pressure;Samples;Min_cycle;Max_cycle;Signal;HPM_P1;HPM_P2
2021/05/02 00:00:25;;;;;;;34.43;22.30;;;;;;;17.61;100.00;100793.59;4935328;29;20429;-73
2021/05/02 00:02:53;;;;;;;31.90;20.90;;;;;;;17.65;100.00;100790.47;4934703;29;20393;-73
2021/05/02 00:05:20;;;;;;;32.50;22.10;;;;;;;17.68;100.00;100782.22;4934832;29;20438;-73
2021/05/02 00:07:47;;;;;;;34.00;22.20;;;;;;;17.73;100.00;100789.78;4934767;29;20437;-73
2021/05/02 00:10:14;;;;;;;33.00;23.63;;;;;;;17.74;100.00;100808.22;4934480;29;20488;-73
2021/05/02 00:12:40;;;;;;;33.33;21.77;;;;;;;17.72;100.00;100798.72;4934987;29;20863;-73
2021/05/02 00:15:09;;;;;;;36.80;25.97;;;;;;;17.71;100.00;100791.75;4934844;29;21027;-72
2021/05/02 00:17:40;;;;;;;38.47;23.40;;;;;;;17.70;100.00;100806.00;4934512;29;20159;-73
2021/05/02 00:20:06;;;;;;;32.90;23.50;;;;;;;17.69;100.00;100806.97;4934639;29;20488;-71
2021/05/02 00:22:34;;;;;;;41.17;22.57;;;;;;;17.62;100.00;100806.72;4934525;29;20409;-72
2021/05/02 00:25:02;;;;;;;34.17;21.47;;;;;;;17.62;100.00;100798.75;4934594;29;20932;-73
2021/05/02 00:27:29;;;;;;;35.53;18.80;;;;;;;17.60;100.00;100792.72;4934779;29;20833;-72
2021/05/02 00:29:54;;;;;;;32.63;20.27;;;;;;;17.52;100.00;100781.16;4934826;29;20572;-73
2021/05/02 00:32:21;;;;;;;35.70;22.67;;;;;;;17.48;100.00;100778.81;4934347;29;20548;-73
2021/05/02 00:34:48;;;;;;;33.40;23.10;;;;;;;17.46;100.00;100775.47;4934415;29;20614;-74
2021/05/02 00:37:13;;;;;;;36.87;22.37;;;;;;;17.47;100.00;100777.13;4934453;29;20886;-74
2021/05/02 00:39:40;;;;;;;34.10;22.50;;;;;;;17.48;100.00;100776.16;4934207;29;20409;-71
2021/05/02 00:42:09;;;;;;;35.80;21.47;;;;;;;17.52;100.00;100775.84;4934460;29;20583;-73
2021/05/02 00:45:05;;;;;;;33.60;22.37;;;;;;;17.43;100.00;100770.44;4934327;29;20405;-74
2021/05/02 00:47:37;;;;;;;34.43;23.30;;;;;;;17.44;100.00;100776.56;4927828;29;20877;-73
2021/05/02 00:50:09;;;;;;;31.53;22.30;;;;;;;17.34;100.00;100771.31;4934250;29;20463;-74
2021/05/02 00:52:36;;;;;;;30.40;23.07;;;;;;;17.33;100.00;100777.59;4934203;29;20456;-72
2021/05/02 00:55:09;;;;;;;33.20;24.37;;;;;;;17.38;100.00;100764.75;4934283;29;20397;-72
2021/05/02 00:57:46;;;;;;;36.00;22.30;;;;;;;17.34;100.00;100776.63;4933912;29;20467;-72
2021/05/02 01:00:13;;;;;;;34.77;22.40;;;;;;;17.22;100.00;100776.94;4934588;29;20531;-74
2021/05/02 01:02:41;;;;;;;35.67;22.83;;;;;;;17.27;100.00;100780.00;4933996;29;20389;-74
2021/05/02 01:05:10;;;;;;;30.30;21.97;;;;;;;17.30;100.00;100769.06;4934392;29;20397;-73
2021/05/02 01:07:41;;;;;;;29.67;21.00;;;;;;;17.29;100.00;100768.25;4934183;29;20397;-73
2021/05/02 01:10:18;;;;;;;30.77;22.13;;;;;;;17.31;100.00;100766.31;4933748;29;20471;-73
2021/05/02 01:12:47;;;;;;;29.53;20.40;;;;;;;17.29;100.00;100756.78;4934247;29;20409;-73
2021/05/02 01:15:15;;;;;;;29.97;23.13;;;;;;;17.39;100.00;100758.44;4933930;29;20897;-73
2021/05/02 01:17:45;;;;;;;34.23;22.20;;;;;;;17.44;100.00;100756.16;4933940;29;20398;-75
2021/05/02 01:20:14;;;;;;;28.33;20.93;;;;;;;17.44;100.00;100758.81;4934010;29;20408;-73
2021/05/02 01:22:42;;;;;;;36.80;22.90;;;;;;;17.44;100.00;100761.47;4935692;29;20405;-72
2021/05/02 01:25:09;;;;;;;33.90;20.70;;;;;;;17.42;100.00;100760.78;4937962;29;20925;-73
2021/05/02 01:27:35;;;;;;;31.23;20.37;;;;;;;17.45;100.00;100744.53;4937743;29;20499;-73
2021/05/02 01:30:04;;;;;;;37.77;22.40;;;;;;;17.51;100.00;100739.63;4937761;29;20456;-73
2021/05/02 01:32:30;;;;;;;30.57;20.70;;;;;;;17.52;100.00;100738.66;4937698;29;20177;-73
2021/05/02 01:34:56;;;;;;;27.83;20.10;;;;;;;17.54;100.00;100732.22;4936532;29;20417;-73
2021/05/02 01:37:22;;;;;;;37.27;18.83;;;;;;;17.58;100.00;100725.63;4937442;29;20451;-73
2021/05/02 01:39:49;;;;;;;28.63;19.20;;;;;;;17.63;100.00;100730.50;4937614;29;20952;-74
2021/05/02 01:42:15;;;;;;;28.33;19.80;;;;;;;17.65;100.00;100725.88;4937553;29;20185;-73
2021/05/02 01:44:40;;;;;;;44.87;21.27;;;;;;;17.68;100.00;100730.88;4937322;29;20493;-72
2021/05/02 01:47:11;;;;;;;35.10;21.30;;;;;;;17.74;100.00;100727.66;4936157;29;20177;-73
2021/05/02 01:50:02;;;;;;;29.90;19.73;;;;;;;17.87;100.00;100720.16;4937369;29;20196;-73
2021/05/02 01:52:32;;;;;;;28.37;19.73;;;;;;;17.87;100.00;100717.50;4936984;29;20421;-72
2021/05/02 01:54:59;;;;;;;28.57;19.90;;;;;;;17.85;100.00;100713.34;4937381;29;20407;-73
2021/05/02 01:57:30;;;;;;;28.20;19.47;;;;;;;17.88;100.00;100711.19;4936966;29;20464;-72
2021/05/02 01:59:59;;;;;;;30.90;14.97;;;;;;;17.90;100.00;100703.91;4937632;29;20436;-72
2021/05/02 02:02:26;;;;;;;27.33;19.40;;;;;;;17.93;100.00;100711.59;4937255;29;20401;-73
2021/05/02 02:04:55;;;;;;;30.97;19.00;;;;;;;17.96;100.00;100692.66;4937051;29;20415;-73
2021/05/02 02:07:21;;;;;;;26.10;16.10;;;;;;;17.99;100.00;100691.56;4937358;29;20399;-73
2021/05/02 02:09:46;;;;;;;27.50;19.67;;;;;;;18.03;100.00;100692.91;4936721;29;20460;-73
2021/05/02 02:12:13;;;;;;;26.93;16.10;;;;;;;18.12;100.00;100680.50;4936840;29;20173;-72
2021/05/02 02:14:39;;;;;;;27.50;16.37;;;;;;;18.20;100.00;100677.91;4937048;29;20232;-71
2021/05/02 02:17:06;;;;;;;27.33;14.50;;;;;;;18.26;100.00;100680.81;4936838;29;20401;-72
2021/05/02 02:19:32;;;;;;;23.97;15.60;;;;;;;18.20;100.00;100684.06;4936597;29;20413;-73
2021/05/02 02:21:59;;;;;;;20.80;16.20;;;;;;;18.32;100.00;100679.38;4936033;29;20464;-73
2021/05/02 02:24:44;;;;;;;26.90;14.97;;;;;;;18.36;100.00;100677.22;4936927;29;20411;-73
2021/05/02 02:27:11;;;;;;;25.47;16.70;;;;;;;18.34;100.00;100673.88;4936828;29;20405;-72
2021/05/02 02:29:45;;;;;;;29.60;16.00;;;;;;;18.37;100.00;100682.41;4936570;29;20539;-74
2021/05/02 02:32:14;;;;;;;29.97;18.73;;;;;;;18.33;100.00;100673.06;4936533;29;20425;-74
2021/05/02 02:34:46;;;;;;;30.17;19.40;;;;;;;18.23;100.00;100682.94;4936585;29;20842;-71
2021/05/02 02:37:14;;;;;;;32.37;20.20;;;;;;;18.23;100.00;100673.16;4919813;29;20413;-74
2021/05/02 02:39:46;;;;;;;29.13;19.87;;;;;;;18.11;100.00;100677.00;4936373;29;20397;-73
2021/05/02 02:42:14;;;;;;;31.30;20.60;;;;;;;17.98;100.00;100689.84;4936771;29;20886;-72
2021/05/02 02:44:51;;;;;;;33.33;20.20;;;;;;;17.86;100.00;100686.59;4919385;29;20835;-72
2021/05/02 02:47:19;;;;;;;30.17;18.67;;;;;;;17.77;100.00;100690.16;4936448;29;20401;-74
2021/05/02 02:49:49;;;;;;;28.57;18.57;;;;;;;17.77;100.00;100679.53;4936200;29;20491;-73
2021/05/02 02:52:21;;;;;;;35.00;19.70;;;;;;;17.81;100.00;100667.59;4936319;29;20453;-73
2021/05/02 02:55:03;;;;;;;27.80;17.73;;;;;;;17.85;100.00;100666.31;4936523;29;20853;-73
2021/05/02 02:57:37;;;;;;;27.73;17.43;;;;;;;17.87;100.00;100667.00;4935979;29;21043;-73
2021/05/02 03:00:05;;;;;;;29.07;18.80;;;;;;;17.93;100.00;100666.41;4936564;29;20941;-72
2021/05/02 03:02:30;;;;;;;35.93;17.80;;;;;;;18.03;100.00;100666.31;4936205;29;20498;-73
2021/05/02 03:04:58;;;;;;;24.93;16.80;;;;;;;18.14;100.00;100650.13;4935947;29;20416;-73
2021/05/02 03:07:24;;;;;;;23.97;15.80;;;;;;;18.30;100.00;100649.44;4936148;29;20162;-72
2021/05/02 03:09:50;;;;;;;23.73;17.43;;;;;;;18.42;100.00;100639.34;4935865;29;21035;-71
2021/05/02 03:12:20;;;;;;;28.27;16.00;;;;;;;18.53;100.00;100636.44;4935830;29;20173;-73
2021/05/02 03:14:51;;;;;;;28.83;14.43;;;;;;;18.60;100.00;100645.47;4935999;29;20389;-72
2021/05/02 03:17:38;;;;;;;22.93;13.63;;;;;;;18.66;100.00;100646.69;4935808;29;20488;-71
2021/05/02 03:20:07;;;;;;;24.23;16.10;;;;;;;18.69;100.00;100635.75;4935706;29;20412;-72
2021/05/02 03:22:41;;;;;;;25.17;13.90;;;;;;;18.68;100.00;100636.75;4935713;29;20409;-73
2021/05/02 03:25:10;;;;;;;30.97;16.83;;;;;;;18.58;100.00;100640.28;4935756;29;20808;-73
2021/05/02 03:27:42;;;;;;;24.83;17.90;;;;;;;18.55;100.00;100635.28;4935794;29;20400;-73
2021/05/02 03:30:09;;;;;;;29.63;18.50;;;;;;;18.56;100.00;100636.97;4935555;29;20437;-73
2021/05/02 03:32:37;;;;;;;34.03;17.50;;;;;;;18.55;100.00;100635.28;4935692;29;20390;-72
2021/05/02 03:35:05;;;;;;;29.73;16.57;;;;;;;18.61;100.00;100638.31;4935729;29;20827;-73
2021/05/02 03:37:36;;;;;;;26.20;16.93;;;;;;;18.67;100.00;100635.06;4935342;29;20504;-73
2021/05/02 03:40:04;;;;;;;28.23;16.50;;;;;;;18.70;100.00;100637.41;4935629;29;20429;-74
2021/05/02 03:42:31;;;;;;;30.60;14.87;;;;;;;18.75;100.00;100648.44;4935636;29;20760;-73
2021/05/02 03:44:56;;;;;;;25.90;16.30;;;;;;;18.75;100.00;100654.59;4934731;29;20398;-73
2021/05/02 03:47:22;;;;;;;38.10;16.30;;;;;;;18.83;100.00;100653.81;4935194;29;20401;-73
2021/05/02 03:49:48;;;;;;;28.03;15.90;;;;;;;18.87;100.00;100656.97;4935203;29;20189;-74
2021/05/02 03:52:14;;;;;;;30.90;16.10;;;;;;;18.94;100.00;100652.69;4935067;29;20172;-73
2021/05/02 03:54:41;;;;;;;27.33;14.90;;;;;;;19.06;100.00;100649.59;4935249;29;20165;-72
2021/05/02 03:57:07;;;;;;;26.17;13.90;;;;;;;19.06;100.00;100660.25;4934874;29;20516;-71
2021/05/02 03:59:32;;;;;;;25.20;12.93;;;;;;;19.11;100.00;100647.25;4935098;29;20432;-71
2021/05/02 04:02:00;;;;;;;25.83;13.03;;;;;;;19.18;100.00;100663.44;4935388;29;20431;-73
2021/05/02 04:04:27;;;;;;;25.63;13.60;;;;;;;19.29;100.00;100655.16;4934994;29;20677;-73
2021/05/02 04:07:00;;;;;;;22.87;11.30;;;;;;;19.39;100.00;100661.19;4935103;29;20389;-74
2021/05/02 04:09:26;;;;;;;27.07;12.20;;;;;;;19.44;100.00;100663.38;4934856;29;20425;-72
2021/05/02 04:11:52;;;;;;;27.60;13.97;;;;;;;19.45;100.00;100654.38;4934766;29;20409;-72
2021/05/02 04:14:18;;;;;;;24.47;13.80;;;;;;;19.47;100.00;100655.06;4934688;29;20416;-72
2021/05/02 04:17:00;;;;;;;23.20;14.83;;;;;;;19.51;100.00;100655.59;4934846;29;20386;-73
2021/05/02 04:19:29;;;;;;;26.17;14.30;;;;;;;19.60;100.00;100652.78;4934732;29;20169;-72
2021/05/02 04:21:55;;;;;;;18.97;13.37;;;;;;;19.74;100.00;100653.16;4934807;29;20405;-73
2021/05/02 04:24:21;;;;;;;47.13;16.50;;;;;;;19.80;100.00;100655.16;4934657;29;20416;-73
2021/05/02 04:26:49;;;;;;;31.83;13.03;;;;;;;19.85;100.00;100661.66;4934506;29;20540;-73
2021/05/02 04:29:15;;;;;;;22.17;15.63;;;;;;;19.82;100.00;100656.66;4934667;29;20433;-74
2021/05/02 04:31:40;;;;;;;21.73;13.20;;;;;;;19.77;100.00;100651.00;4934748;29;20547;-73
2021/05/02 04:34:06;;;;;;;31.53;15.67;;;;;;;19.75;100.00;100661.00;4934439;29;20166;-73
2021/05/02 04:36:32;;;;;;;20.00;13.20;;;;;;;19.91;100.00;100663.69;4934305;29;20968;-73
2021/05/02 04:38:58;;;;;;;32.83;16.60;;;;;;;19.91;100.00;100666.34;4934485;29;20192;-73
2021/05/02 04:41:25;;;;;;;24.33;13.80;;;;;;;20.05;100.00;100658.69;4934415;29;20164;-73
2021/05/02 04:43:51;;;;;;;20.67;12.60;;;;;;;20.26;100.00;100655.53;4934202;29;20415;-73
2021/05/02 04:46:17;;;;;;;22.13;15.10;;;;;;;20.45;100.00;100653.38;4934519;29;20401;-73
2021/05/02 04:48:43;;;;;;;24.83;14.47;;;;;;;20.56;100.00;100659.38;4934566;29;20396;-72
2021/05/02 04:51:10;;;;;;;25.80;15.80;;;;;;;20.66;100.00;100663.53;4933972;29;20870;-73
2021/05/02 04:53:36;;;;;;;25.97;14.03;;;;;;;20.78;100.00;100663.97;4934144;29;20194;-74
2021/05/02 04:56:01;;;;;;;23.37;14.80;;;;;;;20.78;100.00;100678.19;4933658;29;20530;-73
2021/05/02 04:58:27;;;;;;;21.30;12.47;;;;;;;20.73;100.00;100672.53;4933977;29;20583;-74
2021/05/02 05:00:52;;;;;;;24.67;12.17;;;;;;;20.60;100.00;100672.22;4934697;29;20937;-74
2021/05/02 05:03:18;;;;;;;22.43;13.60;;;;;;;20.64;100.00;100672.72;4934245;29;20176;-73
2021/05/02 05:05:44;;;;;;;23.00;15.13;;;;;;;20.75;100.00;100670.50;4933910;29;20180;-72
2021/05/02 05:08:09;;;;;;;22.30;13.87;;;;;;;20.71;100.00;100663.03;4934142;29;20549;-74
2021/05/02 05:10:35;;;;;;;31.97;15.47;;;;;;;20.70;100.00;100667.50;4933894;29;20196;-73
2021/05/02 05:13:01;;;;;;;23.37;16.10;;;;;;;20.83;100.00;100666.97;4932761;29;20650;-73
2021/05/02 05:15:27;;;;;;;28.83;17.87;;;;;;;20.79;100.00;100679.03;4933904;29;20185;-73
2021/05/02 05:17:52;;;;;;;31.47;19.30;;;;;;;20.75;100.00;100680.34;4934078;29;20480;-72
2021/05/02 05:20:18;;;;;;;28.27;19.43;;;;;;;20.78;100.00;100685.34;4933827;29;20180;-73
2021/05/02 05:22:43;;;;;;;36.13;20.37;;;;;;;20.60;100.00;100682.88;4933985;29;20280;-72
2021/05/02 05:25:09;;;;;;;27.63;19.77;;;;;;;20.63;100.00;100690.56;4934192;29;20169;-72
2021/05/02 05:27:35;;;;;;;27.17;16.77;;;;;;;20.58;100.00;100684.91;4933826;29;20184;-73
2021/05/02 05:30:00;;;;;;;26.70;16.90;;;;;;;20.61;100.00;100686.38;4933541;29;20572;-74
2021/05/02 05:32:26;;;;;;;24.47;16.00;;;;;;;20.67;100.00;100683.03;4933843;29;20208;-73
2021/05/02 05:34:52;;;;;;;25.27;16.63;;;;;;;20.90;100.00;100685.84;4934037;29;20260;-73
2021/05/02 05:37:17;;;;;;;23.33;13.87;;;;;;;21.19;100.00;100670.03;4933720;29;20184;-72
2021/05/02 05:39:43;;;;;;;23.00;14.90;;;;;;;21.50;100.00;100669.28;4933595;29;20170;-74
2021/05/02 05:42:08;;;;;;;29.20;14.17;;;;;;;21.70;100.00;100658.97;4933889;29;20162;-74
2021/05/02 05:44:34;;;;;;;18.87;11.47;;;;;;;21.83;100.00;100670.72;4934075;29;20169;-74
2021/05/02 05:47:00;;;;;;;22.30;11.17;;;;;;;21.95;100.00;100662.31;4933531;29;20180;-74
2021/05/02 05:49:26;;;;;;;17.40;9.40;;;;;;;21.98;100.00;100660.09;4933782;29;20401;-73
2021/05/02 05:51:54;;;;;;;19.93;11.13;;;;;;;22.07;100.00;100655.53;4933620;29;20263;-73
2021/05/02 05:54:20;;;;;;;23.60;10.40;;;;;;;22.19;100.00;100659.47;4933465;29;20240;-73
2021/05/02 05:56:47;;;;;;;16.20;9.73;;;;;;;22.32;100.00;100656.19;4916487;29;20556;-73
2021/05/02 05:59:13;;;;;;;24.53;10.30;;;;;;;22.43;100.00;100648.53;4933597;29;20788;-72
2021/05/02 06:01:39;;;;;;;22.60;10.47;;;;;;;22.51;100.00;100646.78;4932184;29;20428;-72
2021/05/02 06:04:04;;;;;;;17.77;10.13;;;;;;;22.61;100.00;100652.72;4916818;29;20257;-73
2021/05/02 06:06:35;;;;;;;13.70;8.10;;;;;;;22.75;100.00;100646.56;4932189;29;20548;-73
2021/05/02 06:09:02;;;;;;;14.33;7.97;;;;;;;23.01;100.00;100643.44;4935696;29;20219;-73
2021/05/02 06:11:30;;;;;;;14.97;7.97;;;;;;;23.18;100.00;100641.38;4937057;29;20995;-74
2021/05/02 06:13:57;;;;;;;17.23;8.43;;;;;;;23.40;100.00;100637.72;4936805;29;20432;-72
2021/05/02 06:16:23;;;;;;;17.53;8.73;;;;;;;23.76;100.00;100629.69;4936853;29;20405;-73
2021/05/02 06:18:52;;;;;;;14.33;7.50;;;;;;;24.08;100.00;100614.91;4936754;29;20409;-74
2021/05/02 06:21:19;;;;;;;12.43;6.17;;;;;;;24.28;100.00;100616.94;4937023;29;20909;-73
2021/05/02 06:23:45;;;;;;;13.70;6.67;;;;;;;24.58;100.00;100606.84;4936657;29;20396;-72
2021/05/02 06:26:10;;;;;;;12.20;6.50;;;;;;;24.84;100.00;100615.03;4936581;29;20401;-72
2021/05/02 06:28:36;;;;;;;14.50;6.87;;;;;;;25.11;100.00;100613.34;4936557;29;20197;-74
2021/05/02 06:31:01;;;;;;;15.30;5.97;;;;;;;25.09;100.00;100612.75;4936517;29;20252;-73
2021/05/02 06:33:26;;;;;;;13.80;6.17;;;;;;;25.05;100.00;100611.47;4936631;29;20172;-72
2021/05/02 06:35:54;;;;;;;16.13;5.60;;;;;;;24.94;100.00;100613.84;4935220;29;20644;-73
2021/05/02 06:38:19;;;;;;;11.70;5.87;;;;;;;24.97;100.00;100614.28;4936193;29;20409;-74
2021/05/02 06:40:45;;;;;;;13.83;6.13;;;;;;;25.17;100.00;100609.03;4934843;29;20432;-74
2021/05/02 06:43:11;;;;;;;18.40;6.40;;;;;;;25.21;100.00;100602.22;4936395;29;20402;-74
2021/05/02 06:45:36;;;;;;;13.37;5.23;;;;;;;25.37;100.00;100604.53;4936412;29;20492;-72
2021/05/02 06:48:02;;;;;;;14.37;4.87;;;;;;;25.13;100.00;100597.00;4936443;29;20180;-74
2021/05/02 06:50:27;;;;;;;11.53;4.83;;;;;;;25.23;100.00;100592.06;4936202;29;20197;-73
2021/05/02 06:52:53;;;;;;;19.27;5.07;;;;;;;25.31;100.00;100593.75;4936319;29;20588;-73
2021/05/02 06:55:18;;;;;;;13.47;4.90;;;;;;;25.49;100.00;100585.13;4935972;29;20244;-71
2021/05/02 06:57:44;;;;;;;11.13;4.80;;;;;;;25.54;100.00;100574.56;4936698;29;20165;-71
2021/05/02 07:00:10;;;;;;;14.93;4.60;;;;;;;25.70;100.00;100579.56;4936320;29;20585;-72
2021/05/02 07:02:35;;;;;;;12.70;4.73;;;;;;;25.84;100.00;100569.66;4935899;29;20165;-73
2021/05/02 07:05:01;;;;;;;14.10;4.83;;;;;;;26.00;100.00;100566.56;4935907;29;20169;-72
2021/05/02 07:07:28;;;;;;;10.30;4.43;;;;;;;26.16;100.00;100554.53;4936062;29;20166;-73
2021/05/02 07:09:54;;;;;;;14.70;4.50;;;;;;;26.28;100.00;100558.22;4935933;29;20557;-73
2021/05/02 07:12:23;;;;;;;9.93;4.47;;;;;;;26.43;100.00;100549.94;4935850;29;20460;-73
2021/05/02 07:14:48;;;;;;;13.23;4.50;;;;;;;26.48;100.00;100547.47;4935726;29;20168;-72
2021/05/02 07:17:15;;;;;;;9.77;5.00;;;;;;;26.53;100.00;100548.50;4935808;29;20781;-73
2021/05/02 07:19:40;;;;;;;17.37;7.57;;;;;;;26.49;100.00;100565.28;4934667;29;20161;-72
2021/05/02 07:22:06;;;;;;;23.63;9.17;;;;;;;26.39;100.00;100565.72;4935740;29;20788;-73
2021/05/02 07:24:32;;;;;;;15.80;9.50;;;;;;;26.23;100.00;100572.34;4935824;29;20180;-74
2021/05/02 07:26:58;;;;;;;15.17;7.90;;;;;;;25.65;100.00;100577.47;4935579;29;20425;-73
2021/05/02 07:29:24;;;;;;;20.90;7.63;;;;;;;25.69;100.00;100573.38;4935553;29;20165;-72
2021/05/02 07:31:50;;;;;;;10.97;7.10;;;;;;;25.82;100.00;100563.66;4935287;29;20456;-73
2021/05/02 07:34:15;;;;;;;13.83;6.67;;;;;;;25.96;100.00;100565.31;4935355;29;20236;-73
2021/05/02 07:36:41;;;;;;;14.13;7.50;;;;;;;25.97;100.00;100572.34;4935356;29;20170;-71
2021/05/02 07:39:08;;;;;;;11.43;6.53;;;;;;;26.09;100.00;100562.63;4918383;29;20172;-72
2021/05/02 07:41:34;;;;;;;11.40;7.00;;;;;;;26.09;100.00;100559.09;4935181;29;20406;-73
2021/05/02 07:43:59;;;;;;;13.47;6.00;;;;;;;26.04;100.00;100551.63;4933897;29;20443;-71
2021/05/02 07:46:25;;;;;;;15.47;5.40;;;;;;;25.78;100.00;100540.88;4935303;29;20157;-73
2021/05/02 07:48:50;;;;;;;15.20;6.53;;;;;;;25.57;100.00;100544.56;4935290;29;20762;-73
2021/05/02 07:51:16;;;;;;;13.63;5.73;;;;;;;25.23;100.00;100545.53;4934760;29;20712;-73
2021/05/02 07:53:42;;;;;;;10.20;5.57;;;;;;;24.81;100.00;100540.19;4934667;29;20181;-72
2021/05/02 07:56:07;;;;;;;13.77;6.10;;;;;;;24.98;100.00;100543.34;4935032;29;20457;-73
2021/05/02 07:58:33;;;;;;;11.73;5.80;;;;;;;24.69;100.00;100554.38;4934753;29;20199;-73
2021/05/02 08:00:59;;;;;;;10.40;6.67;;;;;;;24.65;100.00;100539.72;4934959;29;20411;-72
2021/05/02 08:03:24;;;;;;;14.57;6.30;;;;;;;24.92;100.00;100536.91;4934111;29;20236;-72
2021/05/02 08:05:51;;;;;;;22.83;6.80;;;;;;;25.10;100.00;100531.03;4934315;29;20185;-74
2021/05/02 08:08:16;;;;;;;17.80;6.70;;;;;;;25.36;100.00;100516.78;4934823;29;20193;-75
2021/05/02 08:10:42;;;;;;;14.33;6.80;;;;;;;25.68;100.00;100496.31;4934596;29;20460;-75
2021/05/02 08:13:07;;;;;;;10.83;6.20;;;;;;;25.92;100.00;100491.34;4934622;29;20173;-75
2021/05/02 08:15:33;;;;;;;15.53;7.93;;;;;;;26.06;100.00;100487.59;4934493;29;20176;-75
2021/05/02 08:17:59;;;;;;;15.77;7.13;;;;;;;26.00;100.00;100481.22;4934350;29;20232;-75
2021/05/02 08:20:25;;;;;;;16.73;8.03;;;;;;;25.94;100.00;100486.59;4934344;29;20543;-72
2021/05/02 08:22:51;;;;;;;18.33;8.17;;;;;;;25.85;100.00;100482.50;4934412;29;20423;-73
2021/05/02 08:25:17;;;;;;;13.10;5.80;;;;;;;25.83;100.00;100468.38;4934384;29;20164;-72
2021/05/02 08:27:43;;;;;;;11.73;5.50;;;;;;;25.83;100.00;100463.00;4934399;29;20428;-70
2021/05/02 08:30:11;;;;;;;12.43;4.60;;;;;;;25.97;100.00;100453.88;4933930;29;20223;-74
2021/05/02 08:32:36;;;;;;;13.43;5.40;;;;;;;26.07;100.00;100462.34;4934049;29;20408;-74
2021/05/02 08:35:04;;;;;;;16.03;5.03;;;;;;;26.05;100.00;100456.34;4934200;29;20401;-74
2021/05/02 08:37:30;;;;;;;10.17;5.40;;;;;;;25.99;100.00;100459.84;4934059;29;20173;-74
2021/05/02 08:39:55;;;;;;;10.77;5.07;;;;;;;25.93;100.00;100461.56;4932711;29;20968;-72
2021/05/02 08:42:21;;;;;;;12.57;5.17;;;;;;;26.06;100.00;100457.97;4934045;29;20244;-75
2021/05/02 08:44:46;;;;;;;10.70;5.53;;;;;;;26.07;100.00;100451.59;4933953;29;20161;-72
2021/05/02 08:47:13;;;;;;;9.60;5.10;;;;;;;26.02;100.00;100459.47;4934637;29;20264;-73
2021/05/02 08:49:44;;;;;;;18.60;6.07;;;;;;;26.06;100.00;100457.16;4933947;29;20200;-75
2021/05/02 08:52:10;;;;;;;12.03;4.87;;;;;;;26.27;100.00;100457.72;4933860;29;20493;-73
2021/05/02 08:54:36;;;;;;;19.33;5.40;;;;;;;26.62;100.00;100451.22;4934073;29;20497;-73
2021/05/02 08:57:02;;;;;;;11.60;5.03;;;;;;;26.76;100.00;100448.22;4933408;29;20468;-74
2021/05/02 08:59:28;;;;;;;13.53;6.70;;;;;;;26.91;100.00;100441.72;4933895;29;20435;-73
2021/05/02 09:01:58;;;;;;;10.93;4.73;;;;;;;27.19;100.00;100447.56;4933891;29;20793;-73
2021/05/02 09:04:24;;;;;;;13.47;5.07;;;;;;;27.27;100.00;100432.97;4933932;29;20153;-72
2021/05/02 09:06:50;;;;;;;9.87;5.00;;;;;;;27.54;100.00;100439.00;4933855;29;20786;-74
2021/05/02 09:09:16;;;;;;;11.73;5.70;;;;;;;27.50;100.00;100440.47;4933446;29;20193;-74
2021/05/02 09:11:47;;;;;;;8.80;4.27;;;;;;;27.53;100.00;100446.25;4934068;29;20539;-74
2021/05/02 09:14:20;;;;;;;14.40;4.57;;;;;;;27.68;100.00;100443.25;4933732;29;20177;-74
2021/05/02 09:16:57;;;;;;;11.23;4.63;;;;;;;27.43;100.00;100437.00;4933606;29;20390;-74
2021/05/02 09:19:31;;;;;;;12.10;5.00;;;;;;;27.41;100.00;100442.63;4933489;29;20846;-74
2021/05/02 09:22:11;;;;;;;10.77;5.00;;;;;;;27.56;100.00;100437.72;4933097;29;20405;-76
2021/05/02 09:24:37;;;;;;;13.07;4.80;;;;;;;27.66;100.00;100439.94;4933474;29;20699;-74
2021/05/02 09:27:13;;;;;;;12.23;4.90;;;;;;;27.68;100.00;100456.75;4933562;29;20984;-74
2021/05/02 09:29:41;;;;;;;13.97;5.47;;;;;;;27.48;100.00;100461.47;4933564;29;20160;-72
2021/05/02 09:32:09;;;;;;;14.87;5.10;;;;;;;27.50;100.00;100459.34;4933713;29;20496;-73
2021/05/02 09:34:36;;;;;;;12.83;5.00;;;;;;;27.17;100.00;100455.06;4932160;29;20448;-73
2021/05/02 09:37:06;;;;;;;17.00;6.13;;;;;;;27.15;100.00;100446.34;4933238;29;20401;-74
2021/05/02 09:39:39;;;;;;;9.40;5.30;;;;;;;27.17;100.00;100451.53;4932822;29;20401;-73
2021/05/02 09:42:19;;;;;;;14.43;5.00;;;;;;;27.18;100.00;100439.69;4933662;29;20755;-73
2021/05/02 09:44:47;;;;;;;10.80;5.13;;;;;;;27.18;100.00;100429.72;4936694;29;20412;-74
2021/05/02 09:47:30;;;;;;;13.43;4.37;;;;;;;27.35;100.00;100409.22;4937040;29;20412;-73
2021/05/02 09:50:17;;;;;;;12.13;5.00;;;;;;;27.64;100.00;100415.00;4936786;29;20991;-74
2021/05/02 09:52:53;;;;;;;12.10;3.80;;;;;;;27.87;98.26;100412.50;4937061;29;20777;-74
2021/05/02 09:55:19;;;;;;;8.90;5.30;;;;;;;28.06;94.18;100409.84;4936535;28;20392;-74
2021/05/02 10:00:42;;;;;;;16.30;4.20;;;;;;;28.73;89.45;100414.19;4910589;29;20570;-73
2021/05/02 10:03:14;;;;;;;16.00;4.67;;;;;;;29.02;85.29;100396.31;4936547;29;20400;-72
2021/05/02 10:05:57;;;;;;;8.70;4.23;;;;;;;29.12;82.39;100392.19;4936511;29;21036;-73
2021/05/02 10:08:39;;;;;;;11.63;4.83;;;;;;;29.11;85.54;100380.56;4937068;29;20793;-73
2021/05/02 10:11:11;;;;;;;14.60;4.90;;;;;;;28.85;84.84;100386.34;4936495;29;20994;-73
2021/05/02 10:13:39;;;;;;;9.70;4.40;;;;;;;28.94;86.28;100391.25;4936670;29;20472;-73
2021/05/02 10:16:05;;;;;;;11.43;4.53;;;;;;;28.81;87.72;100386.00;4936883;29;20897;-72
2021/05/02 10:18:31;;;;;;;9.27;5.30;;;;;;;28.42;91.24;100390.91;4936323;29;20765;-74
2021/05/02 10:20:58;;;;;;;15.57;5.53;;;;;;;28.33;97.34;100394.94;4936450;29;20408;-74
2021/05/02 10:23:24;;;;;;;9.50;5.70;;;;;;;27.90;100.00;100401.28;4936351;29;20401;-72
2021/05/02 10:25:52;;;;;;;13.90;5.67;;;;;;;27.82;100.00;100401.56;4936842;29;20416;-73
2021/05/02 10:28:23;;;;;;;13.93;5.47;;;;;;;27.87;100.00;100384.66;4936810;29;20217;-74
2021/05/02 10:30:53;;;;;;;18.13;6.63;;;;;;;27.84;100.00;100385.97;4936679;29;20456;-74
2021/05/02 10:33:31;;;;;;;12.00;5.23;;;;;;;27.87;100.00;100392.78;4936155;29;20505;-73
2021/05/02 10:36:00;;;;;;;12.23;6.17;;;;;;;27.49;100.00;100399.16;4936433;29;20437;-73
2021/05/02 10:38:55;;;;;;;19.23;6.40;;;;;;;27.87;100.00;100395.47;4936218;29;20398;-74
2021/05/02 10:41:37;;;;;;;13.40;6.07;;;;;;;27.83;100.00;100392.41;4936194;29;20397;-74
2021/05/02 10:44:11;;;;;;;9.97;5.50;;;;;;;27.86;100.00;100396.53;4936158;29;20460;-71
2021/05/02 10:46:57;;;;;;;11.97;5.87;;;;;;;27.83;100.00;100392.41;4936123;29;20396;-73
2021/05/02 10:49:23;;;;;;;15.33;5.80;;;;;;;27.40;100.00;100403.19;4936460;29;20487;-73
2021/05/02 10:51:51;;;;;;;12.97;5.93;;;;;;;26.76;100.00;100396.19;4936072;29;20461;-74
2021/05/02 10:54:20;;;;;;;16.83;5.93;;;;;;;26.44;100.00;100395.28;4919374;29;20190;-73
2021/05/02 10:56:57;;;;;;;13.70;5.60;;;;;;;26.17;100.00;100384.63;4935888;29;20452;-74
2021/05/02 10:59:46;;;;;;;16.27;5.30;;;;;;;26.33;100.00;100379.78;4935943;29;20432;-74
2021/05/02 11:02:45;;;;;;;14.43;5.23;;;;;;;26.25;100.00;100376.28;4935640;29;20436;-73
2021/05/02 11:05:13;;;;;;;15.47;6.40;;;;;;;26.34;100.00;100376.03;4894145;29;20457;-73
2021/05/02 11:07:40;;;;;;;12.67;5.60;;;;;;;26.39;100.00;100376.28;4935833;29;20409;-73
2021/05/02 11:10:09;;;;;;;13.20;6.10;;;;;;;26.33;100.00;100377.91;4935611;29;20527;-73
2021/05/02 11:12:35;;;;;;;11.70;5.30;;;;;;;26.22;100.00;100389.34;4935680;29;20397;-75
2021/05/02 11:15:21;;;;;;;13.83;6.53;;;;;;;25.69;100.00;100389.47;4935795;29;20772;-72